sensor_id;sensor_type;location;lat;lon;timestamp;P1;durP1;ratioP1;P2;durP2;ratioP2
5163;SDS011;2601;50.224;10.126;2022-07-30T00:01:48;4.57;;;4.27;;
5163;SDS011;2601;50.224;10.126;2022-07-30T00:04:15;5.33;;;4.93;;
5163;SDS011;2601;50.224;10.126;2022-07-30T00:06:41;11.43;;;5.73;;
5163;SDS011;2601;50.224;10.126;2022-07-30T00:09:07;6.50;;;5.10;;
5163;SDS011;2601;50.224;10.126;2022-07-30T00:11:32;4.73;;;4.33;;
5163;SDS011;2601;50.224;10.126;2022-07-30T00:13:58;5.67;;;4.70;;
5163;SDS011;2601;50.224;10.126;2022-07-30T00:16:24;5.80;;;3.93;;
5163;SDS011;2601;50.224;10.126;2022-07-30T00:18:50;5.40;;;4.90;;
5163;SDS011;2601;50.224;10.126;2022-07-30T00:21:16;4.77;;;4.37;;
5163;SDS011;2601;50.224;10.126;2022-07-30T00:23:42;4.80;;;4.40;;
5163;SDS011;2601;50.224;10.126;2022-07-30T00:26:07;4.50;;;4.20;;
5163;SDS011;2601;50.224;10.126;2022-07-30T00:28:33;4.60;;;4.20;;
5163;SDS011;2601;50.224;10.126;2022-07-30T00:30:59;4.43;;;4.03;;
5163;SDS011;2601;50.224;10.126;2022-07-30T00:33:25;4.43;;;4.03;;
5163;SDS011;2601;50.224;10.126;2022-07-30T00:35:51;3.63;;;3.40;;
5163;SDS011;2601;50.224;10.126;2022-07-30T00:38:17;4.43;;;3.80;;
5163;SDS011;2601;50.224;10.126;2022-07-30T00:40:42;5.13;;;4.63;;
5163;SDS011;2601;50.224;10.126;2022-07-30T00:43:15;5.17;;;4.67;;
5163;SDS011;2601;50.224;10.126;2022-07-30T00:45:43;5.70;;;5.20;;
5163;SDS011;2601;50.224;10.126;2022-07-30T00:48:09;4.90;;;4.50;;
5163;SDS011;2601;50.224;10.126;2022-07-30T00:50:36;6.87;;;4.30;;
5163;SDS011;2601;50.224;10.126;2022-07-30T00:53:02;6.80;;;5.23;;
5163;SDS011;2601;50.224;10.126;2022-07-30T00:55:29;4.80;;;4.43;;
5163;SDS011;2601;50.224;10.126;2022-07-30T00:57:54;6.80;;;5.10;;
5163;SDS011;2601;50.224;10.126;2022-07-30T01:00:20;10.77;;;6.27;;
5163;SDS011;2601;50.224;10.126;2022-07-30T01:02:46;6.63;;;5.80;;
5163;SDS011;2601;50.224;10.126;2022-07-30T01:05:12;7.87;;;5.23;;
5163;SDS011;2601;50.224;10.126;2022-07-30T01:07:38;5.40;;;4.90;;
5163;SDS011;2601;50.224;10.126;2022-07-30T01:10:04;5.57;;;5.17;;
5163;SDS011;2601;50.224;10.126;2022-07-30T01:12:31;5.60;;;5.10;;
5163;SDS011;2601;50.224;10.126;2022-07-30T01:14:58;5.90;;;5.03;;
5163;SDS011;2601;50.224;10.126;2022-07-30T01:17:25;6.70;;;4.90;;
5163;SDS011;2601;50.224;10.126;2022-07-30T01:19:51;5.60;;;5.20;;
5163;SDS011;2601;50.224;10.126;2022-07-30T01:24:54;4.97;;;4.63;;
5163;SDS011;2601;50.224;10.126;2022-07-30T01:27:44;5.77;;;4.43;;
5163;SDS011;2601;50.224;10.126;2022-07-30T01:30:16;5.30;;;4.87;;
5163;SDS011;2601;50.224;10.126;2022-07-30T01:32:44;4.90;;;4.47;;
5163;SDS011;2601;50.224;10.126;2022-07-30T01:35:11;6.40;;;4.90;;
5163;SDS011;2601;50.224;10.126;2022-07-30T01:37:38;5.27;;;4.77;;
5163;SDS011;2601;50.224;10.126;2022-07-30T01:40:06;5.33;;;4.87;;
5163;SDS011;2601;50.224;10.126;2022-07-30T01:42:33;5.90;;;5.17;;
5163;SDS011;2601;50.224;10.126;2022-07-30T01:45:01;5.60;;;5.20;;
5163;SDS011;2601;50.224;10.126;2022-07-30T01:47:28;5.53;;;5.13;;
5163;SDS011;2601;50.224;10.126;2022-07-30T01:49:58;6.00;;;5.50;;
5163;SDS011;2601;50.224;10.126;2022-07-30T01:52:25;4.80;;;4.47;;
5163;SDS011;2601;50.224;10.126;2022-07-30T01:54:55;5.10;;;4.70;;
5163;SDS011;2601;50.224;10.126;2022-07-30T01:57:23;5.67;;;5.27;;
5163;SDS011;2601;50.224;10.126;2022-07-30T01:59:51;8.40;;;5.43;;
5163;SDS011;2601;50.224;10.126;2022-07-30T02:02:25;6.37;;;5.80;;
5163;SDS011;2601;50.224;10.126;2022-07-30T02:04:51;8.63;;;7.73;;
5163;SDS011;2601;50.224;10.126;2022-07-30T02:08:20;13.20;;;10.47;;
5163;SDS011;2601;50.224;10.126;2022-07-30T02:10:14;13.60;;;10.20;;
5163;SDS011;2601;50.224;10.126;2022-07-30T02:12:48;11.70;;;9.10;;
5163;SDS011;2601;50.224;10.126;2022-07-30T02:20:47;10.67;;;9.67;;
5163;SDS011;2601;50.224;10.126;2022-07-30T02:23:20;12.80;;;11.37;;
5163;SDS011;2601;50.224;10.126;2022-07-30T02:25:48;15.53;;;12.17;;
5163;SDS011;2601;50.224;10.126;2022-07-30T02:28:16;13.53;;;11.70;;
5163;SDS011;2601;50.224;10.126;2022-07-30T02:30:46;18.73;;;12.53;;
5163;SDS011;2601;50.224;10.126;2022-07-30T02:33:27;15.13;;;12.83;;
5163;SDS011;2601;50.224;10.126;2022-07-30T02:35:57;14.60;;;11.20;;
5163;SDS011;2601;50.224;10.126;2022-07-30T02:38:26;17.50;;;12.90;;
5163;SDS011;2601;50.224;10.126;2022-07-30T02:40:58;12.73;;;11.40;;
5163;SDS011;2601;50.224;10.126;2022-07-30T02:43:25;10.23;;;9.23;;
5163;SDS011;2601;50.224;10.126;2022-07-30T02:45:53;10.83;;;9.63;;
5163;SDS011;2601;50.224;10.126;2022-07-30T02:48:21;13.03;;;9.87;;
5163;SDS011;2601;50.224;10.126;2022-07-30T02:50:49;12.73;;;9.20;;
5163;SDS011;2601;50.224;10.126;2022-07-30T02:53:17;9.73;;;8.67;;
5163;SDS011;2601;50.224;10.126;2022-07-30T02:55:45;10.87;;;9.57;;
5163;SDS011;2601;50.224;10.126;2022-07-30T02:58:15;11.93;;;10.63;;
5163;SDS011;2601;50.224;10.126;2022-07-30T03:00:44;11.17;;;9.60;;
5163;SDS011;2601;50.224;10.126;2022-07-30T03:03:11;10.83;;;9.63;;
5163;SDS011;2601;50.224;10.126;2022-07-30T03:05:38;12.90;;;10.17;;
5163;SDS011;2601;50.224;10.126;2022-07-30T03:08:05;11.07;;;9.97;;
5163;SDS011;2601;50.224;10.126;2022-07-30T03:10:32;14.13;;;10.97;;
5163;SDS011;2601;50.224;10.126;2022-07-30T03:13:00;15.03;;;13.17;;
5163;SDS011;2601;50.224;10.126;2022-07-30T03:15:29;16.00;;;13.50;;
5163;SDS011;2601;50.224;10.126;2022-07-30T03:17:59;19.80;;;15.03;;
5163;SDS011;2601;50.224;10.126;2022-07-30T03:20:28;20.70;;;15.60;;
5163;SDS011;2601;50.224;10.126;2022-07-30T03:22:56;19.67;;;14.87;;
5163;SDS011;2601;50.224;10.126;2022-07-30T03:25:24;19.60;;;16.07;;
5163;SDS011;2601;50.224;10.126;2022-07-30T03:27:52;20.33;;;15.33;;
5163;SDS011;2601;50.224;10.126;2022-07-30T03:30:20;19.83;;;15.33;;
5163;SDS011;2601;50.224;10.126;2022-07-30T03:32:49;16.97;;;14.77;;
5163;SDS011;2601;50.224;10.126;2022-07-30T03:35:16;15.57;;;12.60;;
5163;SDS011;2601;50.224;10.126;2022-07-30T03:37:42;16.90;;;14.63;;
5163;SDS011;2601;50.224;10.126;2022-07-30T03:40:09;27.53;;;14.10;;
5163;SDS011;2601;50.224;10.126;2022-07-30T03:42:35;15.47;;;13.43;;
5163;SDS011;2601;50.224;10.126;2022-07-30T03:45:03;13.10;;;11.50;;
5163;SDS011;2601;50.224;10.126;2022-07-30T03:47:31;12.53;;;10.63;;
5163;SDS011;2601;50.224;10.126;2022-07-30T03:49:58;14.30;;;11.30;;
5163;SDS011;2601;50.224;10.126;2022-07-30T03:52:25;13.67;;;11.50;;
5163;SDS011;2601;50.224;10.126;2022-07-30T03:54:54;14.03;;;12.23;;
5163;SDS011;2601;50.224;10.126;2022-07-30T03:57:20;13.27;;;11.03;;
5163;SDS011;2601;50.224;10.126;2022-07-30T03:59:45;12.70;;;11.40;;
5163;SDS011;2601;50.224;10.126;2022-07-30T04:02:12;14.53;;;12.37;;
5163;SDS011;2601;50.224;10.126;2022-07-30T04:04:41;39.67;;;16.20;;
5163;SDS011;2601;50.224;10.126;2022-07-30T04:07:07;42.20;;;15.77;;
5163;SDS011;2601;50.224;10.126;2022-07-30T04:09:34;21.10;;;15.43;;
5163;SDS011;2601;50.224;10.126;2022-07-30T04:12:00;19.80;;;15.97;;
5163;SDS011;2601;50.224;10.126;2022-07-30T04:14:26;20.50;;;14.80;;
5163;SDS011;2601;50.224;10.126;2022-07-30T04:21:57;20.80;;;16.03;;
5163;SDS011;2601;50.224;10.126;2022-07-30T04:24:24;22.87;;;16.83;;
5163;SDS011;2601;50.224;10.126;2022-07-30T04:26:51;20.87;;;16.40;;
5163;SDS011;2601;50.224;10.126;2022-07-30T04:29:17;20.33;;;16.50;;
5163;SDS011;2601;50.224;10.126;2022-07-30T04:31:43;20.23;;;15.83;;
5163;SDS011;2601;50.224;10.126;2022-07-30T04:34:11;23.60;;;16.13;;
5163;SDS011;2601;50.224;10.126;2022-07-30T04:36:39;21.73;;;17.20;;
5163;SDS011;2601;50.224;10.126;2022-07-30T04:39:05;19.77;;;15.07;;
5163;SDS011;2601;50.224;10.126;2022-07-30T04:41:31;21.73;;;17.40;;
5163;SDS011;2601;50.224;10.126;2022-07-30T04:43:57;22.87;;;17.33;;
5163;SDS011;2601;50.224;10.126;2022-07-30T04:46:23;22.63;;;16.57;;
5163;SDS011;2601;50.224;10.126;2022-07-30T04:48:49;34.03;;;16.67;;
5163;SDS011;2601;50.224;10.126;2022-07-30T04:51:29;29.83;;;18.10;;
5163;SDS011;2601;50.224;10.126;2022-07-30T04:53:58;33.17;;;19.10;;
5163;SDS011;2601;50.224;10.126;2022-07-30T04:56:25;36.67;;;17.47;;
5163;SDS011;2601;50.224;10.126;2022-07-30T04:58:54;26.53;;;16.87;;
5163;SDS011;2601;50.224;10.126;2022-07-30T05:01:24;23.80;;;15.93;;
5163;SDS011;2601;50.224;10.126;2022-07-30T05:03:55;20.97;;;16.63;;
5163;SDS011;2601;50.224;10.126;2022-07-30T05:06:24;23.73;;;15.87;;
5163;SDS011;2601;50.224;10.126;2022-07-30T05:08:50;20.57;;;15.73;;
5163;SDS011;2601;50.224;10.126;2022-07-30T05:11:16;26.50;;;17.27;;
5163;SDS011;2601;50.224;10.126;2022-07-30T05:13:43;21.93;;;18.13;;
5163;SDS011;2601;50.224;10.126;2022-07-30T05:16:10;21.33;;;16.03;;
5163;SDS011;2601;50.224;10.126;2022-07-30T05:18:36;20.70;;;17.00;;
5163;SDS011;2601;50.224;10.126;2022-07-30T05:21:03;21.77;;;15.00;;
5163;SDS011;2601;50.224;10.126;2022-07-30T05:23:29;20.90;;;16.90;;
5163;SDS011;2601;50.224;10.126;2022-07-30T05:25:55;20.63;;;16.47;;
5163;SDS011;2601;50.224;10.126;2022-07-30T05:28:21;23.63;;;15.93;;
5163;SDS011;2601;50.224;10.126;2022-07-30T05:30:47;22.97;;;17.30;;
5163;SDS011;2601;50.224;10.126;2022-07-30T05:33:13;18.73;;;14.70;;
5163;SDS011;2601;50.224;10.126;2022-07-30T05:35:38;19.30;;;14.37;;
5163;SDS011;2601;50.224;10.126;2022-07-30T05:38:04;18.13;;;14.73;;
5163;SDS011;2601;50.224;10.126;2022-07-30T05:40:30;19.93;;;16.00;;
5163;SDS011;2601;50.224;10.126;2022-07-30T05:42:56;28.90;;;18.90;;
5163;SDS011;2601;50.224;10.126;2022-07-30T05:45:21;33.33;;;18.80;;
5163;SDS011;2601;50.224;10.126;2022-07-30T05:47:47;23.17;;;16.37;;
5163;SDS011;2601;50.224;10.126;2022-07-30T05:50:13;15.07;;;13.27;;
5163;SDS011;2601;50.224;10.126;2022-07-30T05:52:39;19.70;;;14.43;;
5163;SDS011;2601;50.224;10.126;2022-07-30T05:55:05;18.97;;;14.33;;
5163;SDS011;2601;50.224;10.126;2022-07-30T05:57:33;15.47;;;11.90;;
5163;SDS011;2601;50.224;10.126;2022-07-30T06:00:00;16.93;;;12.13;;
5163;SDS011;2601;50.224;10.126;2022-07-30T06:02:27;16.43;;;11.63;;
5163;SDS011;2601;50.224;10.126;2022-07-30T06:04:53;13.63;;;11.77;;
5163;SDS011;2601;50.224;10.126;2022-07-30T06:07:18;13.47;;;11.73;;
5163;SDS011;2601;50.224;10.126;2022-07-30T06:09:44;13.63;;;12.07;;
5163;SDS011;2601;50.224;10.126;2022-07-30T06:12:10;13.37;;;11.17;;
5163;SDS011;2601;50.224;10.126;2022-07-30T06:14:36;13.30;;;11.07;;
5163;SDS011;2601;50.224;10.126;2022-07-30T06:17:02;13.23;;;11.83;;
5163;SDS011;2601;50.224;10.126;2022-07-30T06:19:28;11.70;;;10.47;;
5163;SDS011;2601;50.224;10.126;2022-07-30T06:21:53;11.03;;;9.80;;
5163;SDS011;2601;50.224;10.126;2022-07-30T06:24:19;9.13;;;8.07;;
5163;SDS011;2601;50.224;10.126;2022-07-30T06:26:45;12.93;;;9.03;;
5163;SDS011;2601;50.224;10.126;2022-07-30T06:29:11;11.90;;;7.90;;
5163;SDS011;2601;50.224;10.126;2022-07-30T06:31:37;7.67;;;6.97;;
5163;SDS011;2601;50.224;10.126;2022-07-30T06:34:04;8.03;;;7.33;;
5163;SDS011;2601;50.224;10.126;2022-07-30T06:36:29;7.47;;;6.73;;
5163;SDS011;2601;50.224;10.126;2022-07-30T06:38:55;8.70;;;6.97;;
5163;SDS011;2601;50.224;10.126;2022-07-30T06:41:21;8.10;;;6.50;;
5163;SDS011;2601;50.224;10.126;2022-07-30T06:43:47;6.33;;;5.73;;
5163;SDS011;2601;50.224;10.126;2022-07-30T06:46:12;6.00;;;5.50;;
5163;SDS011;2601;50.224;10.126;2022-07-30T06:48:38;4.13;;;3.83;;
5163;SDS011;2601;50.224;10.126;2022-07-30T06:51:06;4.57;;;4.27;;
5163;SDS011;2601;50.224;10.126;2022-07-30T06:53:32;5.13;;;4.73;;
5163;SDS011;2601;50.224;10.126;2022-07-30T06:55:57;5.10;;;4.70;;
5163;SDS011;2601;50.224;10.126;2022-07-30T06:58:23;6.70;;;5.20;;
5163;SDS011;2601;50.224;10.126;2022-07-30T07:00:49;7.93;;;4.60;;
5163;SDS011;2601;50.224;10.126;2022-07-30T07:03:15;4.47;;;4.17;;
5163;SDS011;2601;50.224;10.126;2022-07-30T07:05:40;4.83;;;4.33;;
5163;SDS011;2601;50.224;10.126;2022-07-30T07:08:06;4.50;;;4.10;;
5163;SDS011;2601;50.224;10.126;2022-07-30T07:10:32;6.83;;;3.90;;
5163;SDS011;2601;50.224;10.126;2022-07-30T07:12:58;6.13;;;4.10;;
5163;SDS011;2601;50.224;10.126;2022-07-30T07:15:25;5.37;;;3.70;;
5163;SDS011;2601;50.224;10.126;2022-07-30T07:17:51;4.83;;;4.07;;
5163;SDS011;2601;50.224;10.126;2022-07-30T07:20:17;7.07;;;4.27;;
5163;SDS011;2601;50.224;10.126;2022-07-30T07:22:42;4.70;;;4.03;;
5163;SDS011;2601;50.224;10.126;2022-07-30T07:25:09;9.93;;;4.50;;
5163;SDS011;2601;50.224;10.126;2022-07-30T07:27:38;8.07;;;4.40;;
5163;SDS011;2601;50.224;10.126;2022-07-30T07:30:04;10.63;;;3.80;;
5163;SDS011;2601;50.224;10.126;2022-07-30T07:32:30;7.50;;;3.97;;
5163;SDS011;2601;50.224;10.126;2022-07-30T07:34:56;9.77;;;4.50;;
5163;SDS011;2601;50.224;10.126;2022-07-30T07:37:22;11.50;;;4.57;;
5163;SDS011;2601;50.224;10.126;2022-07-30T07:39:47;6.50;;;4.77;;
5163;SDS011;2601;50.224;10.126;2022-07-30T07:42:13;5.70;;;5.17;;
5163;SDS011;2601;50.224;10.126;2022-07-30T07:44:40;8.87;;;4.00;;
5163;SDS011;2601;50.224;10.126;2022-07-30T07:47:06;3.83;;;3.60;;
5163;SDS011;2601;50.224;10.126;2022-07-30T07:49:32;4.73;;;4.27;;
5163;SDS011;2601;50.224;10.126;2022-07-30T07:51:57;8.30;;;5.27;;
5163;SDS011;2601;50.224;10.126;2022-07-30T07:54:23;5.63;;;4.27;;
5163;SDS011;2601;50.224;10.126;2022-07-30T07:56:49;4.33;;;4.00;;
5163;SDS011;2601;50.224;10.126;2022-07-30T07:59:16;6.73;;;4.47;;
5163;SDS011;2601;50.224;10.126;2022-07-30T08:01:42;4.20;;;3.90;;
5163;SDS011;2601;50.224;10.126;2022-07-30T08:04:07;4.90;;;4.47;;
5163;SDS011;2601;50.224;10.126;2022-07-30T08:06:33;4.33;;;3.93;;
5163;SDS011;2601;50.224;10.126;2022-07-30T08:09:00;14.13;;;4.47;;
5163;SDS011;2601;50.224;10.126;2022-07-30T08:11:26;5.13;;;3.90;;
5163;SDS011;2601;50.224;10.126;2022-07-30T08:13:52;4.00;;;3.50;;
5163;SDS011;2601;50.224;10.126;2022-07-30T08:16:18;4.00;;;3.60;;
5163;SDS011;2601;50.224;10.126;2022-07-30T08:18:44;4.17;;;3.70;;
5163;SDS011;2601;50.224;10.126;2022-07-30T08:21:10;3.97;;;3.50;;
5163;SDS011;2601;50.224;10.126;2022-07-30T08:23:35;4.63;;;4.00;;
5163;SDS011;2601;50.224;10.126;2022-07-30T08:26:01;7.00;;;3.50;;
5163;SDS011;2601;50.224;10.126;2022-07-30T08:28:27;3.20;;;3.00;;
5163;SDS011;2601;50.224;10.126;2022-07-30T08:30:53;3.90;;;3.60;;
5163;SDS011;2601;50.224;10.126;2022-07-30T08:33:19;4.03;;;3.60;;
5163;SDS011;2601;50.224;10.126;2022-07-30T08:35:45;5.40;;;3.57;;
5163;SDS011;2601;50.224;10.126;2022-07-30T08:38:14;4.40;;;4.00;;
5163;SDS011;2601;50.224;10.126;2022-07-30T08:40:39;5.40;;;3.97;;
5163;SDS011;2601;50.224;10.126;2022-07-30T08:43:06;6.47;;;3.40;;
5163;SDS011;2601;50.224;10.126;2022-07-30T08:45:33;5.77;;;3.50;;
5163;SDS011;2601;50.224;10.126;2022-07-30T08:47:59;7.90;;;3.63;;
5163;SDS011;2601;50.224;10.126;2022-07-30T08:50:27;8.00;;;3.50;;
5163;SDS011;2601;50.224;10.126;2022-07-30T08:52:53;6.90;;;3.23;;
5163;SDS011;2601;50.224;10.126;2022-07-30T08:55:23;4.00;;;3.60;;
5163;SDS011;2601;50.224;10.126;2022-07-30T08:57:50;3.63;;;3.30;;
5163;SDS011;2601;50.224;10.126;2022-07-30T09:00:16;6.20;;;4.27;;
5163;SDS011;2601;50.224;10.126;2022-07-30T09:02:42;10.40;;;3.40;;
5163;SDS011;2601;50.224;10.126;2022-07-30T09:05:09;4.77;;;4.13;;
5163;SDS011;2601;50.224;10.126;2022-07-30T09:07:36;5.73;;;3.60;;
5163;SDS011;2601;50.224;10.126;2022-07-30T09:10:03;6.50;;;3.53;;
5163;SDS011;2601;50.224;10.126;2022-07-30T09:15:05;4.20;;;3.80;;
5163;SDS011;2601;50.224;10.126;2022-07-30T09:20:14;4.23;;;3.93;;
5163;SDS011;2601;50.224;10.126;2022-07-30T09:22:41;4.10;;;3.37;;
5163;SDS011;2601;50.224;10.126;2022-07-30T09:25:07;15.63;;;4.87;;
5163;SDS011;2601;50.224;10.126;2022-07-30T09:27:43;8.17;;;3.97;;
5163;SDS011;2601;50.224;10.126;2022-07-30T09:30:13;6.63;;;3.63;;
5163;SDS011;2601;50.224;10.126;2022-07-30T09:33:13;3.87;;;3.40;;
5163;SDS011;2601;50.224;10.126;2022-07-30T09:35:32;9.00;;;4.50;;
5163;SDS011;2601;50.224;10.126;2022-07-30T09:37:58;5.00;;;3.93;;
5163;SDS011;2601;50.224;10.126;2022-07-30T09:40:24;6.03;;;4.30;;
5163;SDS011;2601;50.224;10.126;2022-07-30T09:43:09;9.40;;;3.90;;
5163;SDS011;2601;50.224;10.126;2022-07-30T09:45:36;10.37;;;4.27;;
5163;SDS011;2601;50.224;10.126;2022-07-30T09:48:24;4.70;;;3.77;;
5163;SDS011;2601;50.224;10.126;2022-07-30T09:50:51;4.20;;;3.80;;
5163;SDS011;2601;50.224;10.126;2022-07-30T09:53:19;7.90;;;4.30;;
5163;SDS011;2601;50.224;10.126;2022-07-30T09:55:48;4.47;;;4.07;;
5163;SDS011;2601;50.224;10.126;2022-07-30T09:58:14;5.53;;;3.70;;
5163;SDS011;2601;50.224;10.126;2022-07-30T10:00:40;4.97;;;3.80;;
5163;SDS011;2601;50.224;10.126;2022-07-30T10:03:13;5.83;;;3.83;;
5163;SDS011;2601;50.224;10.126;2022-07-30T10:08:15;5.37;;;3.77;;
5163;SDS011;2601;50.224;10.126;2022-07-30T10:10:41;4.30;;;3.70;;
5163;SDS011;2601;50.224;10.126;2022-07-30T10:13:08;4.70;;;3.67;;
5163;SDS011;2601;50.224;10.126;2022-07-30T10:15:35;4.93;;;3.63;;
5163;SDS011;2601;50.224;10.126;2022-07-30T10:18:02;4.00;;;3.60;;
5163;SDS011;2601;50.224;10.126;2022-07-30T10:20:29;8.27;;;4.10;;
5163;SDS011;2601;50.224;10.126;2022-07-30T10:22:56;11.53;;;4.83;;
5163;SDS011;2601;50.224;10.126;2022-07-30T10:25:22;10.83;;;4.57;;
5163;SDS011;2601;50.224;10.126;2022-07-30T10:27:50;8.73;;;4.33;;
5163;SDS011;2601;50.224;10.126;2022-07-30T10:30:16;9.67;;;4.27;;
5163;SDS011;2601;50.224;10.126;2022-07-30T10:32:43;7.10;;;4.83;;
5163;SDS011;2601;50.224;10.126;2022-07-30T10:35:10;6.40;;;4.63;;
5163;SDS011;2601;50.224;10.126;2022-07-30T10:37:39;7.17;;;4.80;;
5163;SDS011;2601;50.224;10.126;2022-07-30T10:48:38;5.17;;;4.33;;
5163;SDS011;2601;50.224;10.126;2022-07-30T10:51:03;13.00;;;5.03;;
5163;SDS011;2601;50.224;10.126;2022-07-30T10:53:36;5.37;;;4.87;;
5163;SDS011;2601;50.224;10.126;2022-07-30T10:59:24;8.80;;;4.87;;
5163;SDS011;2601;50.224;10.126;2022-07-30T11:07:24;6.73;;;4.97;;
5163;SDS011;2601;50.224;10.126;2022-07-30T11:09:59;9.87;;;4.47;;
5163;SDS011;2601;50.224;10.126;2022-07-30T11:15:16;5.20;;;4.00;;
5163;SDS011;2601;50.224;10.126;2022-07-30T11:20:26;5.90;;;4.30;;
5163;SDS011;2601;50.224;10.126;2022-07-30T11:22:53;11.80;;;4.07;;
5163;SDS011;2601;50.224;10.126;2022-07-30T11:27:57;4.60;;;4.10;;
5163;SDS011;2601;50.224;10.126;2022-07-30T11:33:41;6.80;;;4.23;;
5163;SDS011;2601;50.224;10.126;2022-07-30T11:35:41;16.23;;;4.80;;
5163;SDS011;2601;50.224;10.126;2022-07-30T11:43:27;9.63;;;4.57;;
5163;SDS011;2601;50.224;10.126;2022-07-30T11:48:34;4.57;;;4.13;;
5163;SDS011;2601;50.224;10.126;2022-07-30T11:51:01;7.47;;;4.43;;
5163;SDS011;2601;50.224;10.126;2022-07-30T11:53:28;7.23;;;4.53;;
5163;SDS011;2601;50.224;10.126;2022-07-30T11:55:54;6.90;;;4.27;;
5163;SDS011;2601;50.224;10.126;2022-07-30T11:58:26;14.40;;;3.70;;
5163;SDS011;2601;50.224;10.126;2022-07-30T12:00:52;9.13;;;4.30;;
5163;SDS011;2601;50.224;10.126;2022-07-30T12:03:20;12.33;;;3.90;;
5163;SDS011;2601;50.224;10.126;2022-07-30T12:05:48;6.53;;;3.60;;
5163;SDS011;2601;50.224;10.126;2022-07-30T12:08:14;6.77;;;4.20;;
5163;SDS011;2601;50.224;10.126;2022-07-30T12:10:41;8.27;;;3.50;;
5163;SDS011;2601;50.224;10.126;2022-07-30T12:13:11;10.53;;;4.30;;
5163;SDS011;2601;50.224;10.126;2022-07-30T12:15:40;7.93;;;4.67;;
5163;SDS011;2601;50.224;10.126;2022-07-30T12:18:07;7.27;;;4.30;;
5163;SDS011;2601;50.224;10.126;2022-07-30T12:20:36;9.23;;;3.90;;
5163;SDS011;2601;50.224;10.126;2022-07-30T12:23:02;7.73;;;3.53;;
5163;SDS011;2601;50.224;10.126;2022-07-30T12:25:37;8.23;;;4.77;;
5163;SDS011;2601;50.224;10.126;2022-07-30T12:28:07;7.23;;;3.73;;
5163;SDS011;2601;50.224;10.126;2022-07-30T12:30:36;11.40;;;3.60;;
5163;SDS011;2601;50.224;10.126;2022-07-30T12:33:04;4.00;;;3.07;;
5163;SDS011;2601;50.224;10.126;2022-07-30T12:35:47;3.27;;;2.83;;
5163;SDS011;2601;50.224;10.126;2022-07-30T12:38:14;4.57;;;4.10;;
5163;SDS011;2601;50.224;10.126;2022-07-30T12:41:14;7.90;;;3.50;;
5163;SDS011;2601;50.224;10.126;2022-07-30T12:46:08;10.40;;;3.47;;
5163;SDS011;2601;50.224;10.126;2022-07-30T12:48:34;3.80;;;2.80;;
5163;SDS011;2601;50.224;10.126;2022-07-30T12:51:07;2.60;;;2.37;;
5163;SDS011;2601;50.224;10.126;2022-07-30T12:53:34;4.50;;;3.60;;
5163;SDS011;2601;50.224;10.126;2022-07-30T12:56:13;4.00;;;2.87;;
5163;SDS011;2601;50.224;10.126;2022-07-30T12:58:58;4.30;;;3.37;;
5163;SDS011;2601;50.224;10.126;2022-07-30T13:04:10;3.83;;;3.33;;
5163;SDS011;2601;50.224;10.126;2022-07-30T13:06:37;8.77;;;3.60;;
5163;SDS011;2601;50.224;10.126;2022-07-30T13:09:04;7.90;;;3.70;;
5163;SDS011;2601;50.224;10.126;2022-07-30T13:11:38;4.20;;;3.50;;
5163;SDS011;2601;50.224;10.126;2022-07-30T13:14:06;5.80;;;3.70;;
5163;SDS011;2601;50.224;10.126;2022-07-30T13:16:34;4.70;;;3.50;;
5163;SDS011;2601;50.224;10.126;2022-07-30T13:19:04;5.00;;;3.70;;
5163;SDS011;2601;50.224;10.126;2022-07-30T13:21:31;5.60;;;3.83;;
5163;SDS011;2601;50.224;10.126;2022-07-30T13:23:58;3.73;;;3.20;;
5163;SDS011;2601;50.224;10.126;2022-07-30T13:26:24;4.30;;;3.10;;
5163;SDS011;2601;50.224;10.126;2022-07-30T13:28:50;3.93;;;3.50;;
5163;SDS011;2601;50.224;10.126;2022-07-30T13:31:16;13.53;;;3.00;;
5163;SDS011;2601;50.224;10.126;2022-07-30T13:33:42;4.90;;;3.23;;
5163;SDS011;2601;50.224;10.126;2022-07-30T13:36:08;6.30;;;2.87;;
5163;SDS011;2601;50.224;10.126;2022-07-30T13:38:34;4.20;;;2.67;;
5163;SDS011;2601;50.224;10.126;2022-07-30T13:41:00;3.77;;;3.20;;
5163;SDS011;2601;50.224;10.126;2022-07-30T13:43:26;3.97;;;2.72;;
5163;SDS011;2601;50.224;10.126;2022-07-30T13:45:52;9.75;;;3.83;;
5163;SDS011;2601;50.224;10.126;2022-07-30T13:48:18;4.25;;;3.40;;
5163;SDS011;2601;50.224;10.126;2022-07-30T13:50:44;8.50;;;2.85;;
5163;SDS011;2601;50.224;10.126;2022-07-30T13:53:10;7.70;;;3.42;;
5163;SDS011;2601;50.224;10.126;2022-07-30T13:55:37;6.63;;;3.27;;
5163;SDS011;2601;50.224;10.126;2022-07-30T13:58:03;5.70;;;3.77;;
5163;SDS011;2601;50.224;10.126;2022-07-30T14:00:31;3.77;;;3.47;;
5163;SDS011;2601;50.224;10.126;2022-07-30T14:03:01;12.07;;;3.30;;
5163;SDS011;2601;50.224;10.126;2022-07-30T14:05:29;6.13;;;4.03;;
5163;SDS011;2601;50.224;10.126;2022-07-30T14:07:56;4.93;;;3.80;;
5163;SDS011;2601;50.224;10.126;2022-07-30T14:10:22;8.80;;;3.50;;
5163;SDS011;2601;50.224;10.126;2022-07-30T14:12:52;4.47;;;3.60;;
5163;SDS011;2601;50.224;10.126;2022-07-30T14:15:20;6.17;;;3.60;;
5163;SDS011;2601;50.224;10.126;2022-07-30T14:17:47;4.80;;;3.43;;
5163;SDS011;2601;50.224;10.126;2022-07-30T14:20:13;6.23;;;3.70;;
5163;SDS011;2601;50.224;10.126;2022-07-30T14:22:38;8.43;;;4.27;;
5163;SDS011;2601;50.224;10.126;2022-07-30T14:25:05;7.53;;;3.90;;
5163;SDS011;2601;50.224;10.126;2022-07-30T14:27:32;5.90;;;3.50;;
5163;SDS011;2601;50.224;10.126;2022-07-30T14:29:58;9.90;;;3.13;;
5163;SDS011;2601;50.224;10.126;2022-07-30T14:32:24;6.40;;;3.70;;
5163;SDS011;2601;50.224;10.126;2022-07-30T14:34:49;4.50;;;3.70;;
5163;SDS011;2601;50.224;10.126;2022-07-30T14:37:15;6.13;;;3.60;;
5163;SDS011;2601;50.224;10.126;2022-07-30T14:39:41;4.10;;;3.40;;
5163;SDS011;2601;50.224;10.126;2022-07-30T14:42:07;9.40;;;4.37;;
5163;SDS011;2601;50.224;10.126;2022-07-30T14:44:33;6.17;;;3.70;;
5163;SDS011;2601;50.224;10.126;2022-07-30T14:46:58;6.07;;;4.03;;
5163;SDS011;2601;50.224;10.126;2022-07-30T14:49:24;9.10;;;4.87;;
5163;SDS011;2601;50.224;10.126;2022-07-30T14:51:50;7.60;;;4.40;;
5163;SDS011;2601;50.224;10.126;2022-07-30T14:54:16;6.00;;;4.00;;
5163;SDS011;2601;50.224;10.126;2022-07-30T14:56:42;13.57;;;4.57;;
5163;SDS011;2601;50.224;10.126;2022-07-30T14:59:08;15.70;;;4.60;;
5163;SDS011;2601;50.224;10.126;2022-07-30T15:01:34;5.63;;;3.70;;
5163;SDS011;2601;50.224;10.126;2022-07-30T15:03:59;5.57;;;3.80;;
5163;SDS011;2601;50.224;10.126;2022-07-30T15:06:26;6.27;;;3.83;;
5163;SDS011;2601;50.224;10.126;2022-07-30T15:08:52;5.00;;;3.97;;
5163;SDS011;2601;50.224;10.126;2022-07-30T15:11:18;5.80;;;4.27;;
5163;SDS011;2601;50.224;10.126;2022-07-30T15:13:44;7.10;;;4.57;;
5163;SDS011;2601;50.224;10.126;2022-07-30T15:16:09;5.73;;;3.93;;
5163;SDS011;2601;50.224;10.126;2022-07-30T15:18:35;7.50;;;4.00;;
5163;SDS011;2601;50.224;10.126;2022-07-30T15:21:01;8.87;;;4.87;;
5163;SDS011;2601;50.224;10.126;2022-07-30T15:23:27;6.17;;;4.00;;
5163;SDS011;2601;50.224;10.126;2022-07-30T15:25:53;9.00;;;4.40;;
5163;SDS011;2601;50.224;10.126;2022-07-30T15:28:19;12.73;;;4.20;;
5163;SDS011;2601;50.224;10.126;2022-07-30T15:30:45;8.40;;;5.70;;
5163;SDS011;2601;50.224;10.126;2022-07-30T15:33:10;6.70;;;4.70;;
5163;SDS011;2601;50.224;10.126;2022-07-30T15:35:36;7.20;;;5.60;;
5163;SDS011;2601;50.224;10.126;2022-07-30T15:38:02;10.30;;;6.40;;
5163;SDS011;2601;50.224;10.126;2022-07-30T15:40:28;8.17;;;5.53;;
5163;SDS011;2601;50.224;10.126;2022-07-30T15:42:54;11.50;;;5.70;;
5163;SDS011;2601;50.224;10.126;2022-07-30T15:45:20;7.50;;;4.97;;
5163;SDS011;2601;50.224;10.126;2022-07-30T15:47:48;8.23;;;4.83;;
5163;SDS011;2601;50.224;10.126;2022-07-30T15:50:15;7.93;;;5.00;;
5163;SDS011;2601;50.224;10.126;2022-07-30T15:52:41;5.70;;;4.30;;
5163;SDS011;2601;50.224;10.126;2022-07-30T15:55:08;4.57;;;4.17;;
5163;SDS011;2601;50.224;10.126;2022-07-30T15:57:34;8.03;;;4.07;;